Time;durP1;ratioP1;P1;durP2;ratioP2;P2;SDS_P1;SDS_P2;PMS_P1;PMS_P2;Temp;Humidity;BMP_temperature;BMP_pressure;BME280_temperature;BME280_humidity;BME280_pressure;Samples;Min_cycle;Max_cycle;Signal;HPM_P1;HPM_P2
2022/10/11 00:00:56;;;;;;;14.13;12.70;;;13.70;99.90;;;;;;6222107;28;20480;-56
2022/10/11 00:04:00;;;;;;;13.73;12.33;;;13.70;99.90;;;;;;6220907;28;20472;-60
2022/10/11 00:07:03;;;;;;;14.73;12.50;;;13.70;99.90;;;;;;6238995;28;20597;-59
2022/10/11 00:10:08;;;;;;;14.00;12.60;;;13.70;99.90;;;;;;6255629;28;20475;-60
2022/10/11 00:13:11;;;;;;;13.37;11.90;;;13.70;99.90;;;;;;6256774;28;20545;-60
2022/10/11 00:16:15;;;;;;;15.33;12.87;;;13.70;99.90;;;;;;6256615;28;20516;-57
2022/10/11 00:19:19;;;;;;;13.50;12.20;;;13.70;99.90;;;;;;6256926;28;20538;-57
2022/10/11 00:22:22;;;;;;;20.27;12.70;;;13.70;99.90;;;;;;6257764;28;20443;-59
2022/10/11 00:25:25;;;;;;;15.43;13.67;;;13.70;99.90;;;;;;6257277;28;20463;-58
2022/10/11 00:28:28;;;;;;;14.27;12.90;;;13.70;99.90;;;;;;6256908;28;20486;-56
2022/10/11 00:31:33;;;;;;;15.00;12.60;;;13.60;99.90;;;;;;6256782;28;20447;-59
2022/10/11 00:34:37;;;;;;;14.30;11.07;;;13.60;99.90;;;;;;6256727;28;20470;-59
2022/10/11 00:37:41;;;;;;;15.00;11.80;;;13.60;99.90;;;;;;6257233;28;20474;-59
2022/10/11 00:40:44;;;;;;;15.07;12.97;;;13.70;99.90;;;;;;6256449;28;20788;-60
2022/10/11 00:43:47;;;;;;;17.50;12.10;;;13.60;99.90;;;;;;6256965;28;20477;-60
2022/10/11 00:46:55;;;;;;;16.30;14.50;;;13.60;99.90;;;;;;6233092;28;20964;-61
2022/10/11 00:50:01;;;;;;;14.97;13.33;;;13.60;99.90;;;;;;6231895;28;20479;-60
2022/10/11 00:53:10;;;;;;;15.37;13.60;;;13.50;99.90;;;;;;6232486;28;20534;-60
2022/10/11 00:56:20;;;;;;;14.27;12.80;;;13.50;99.90;;;;;;6232259;28;20468;-60
2022/10/11 00:59:27;;;;;;;15.90;14.40;;;13.40;99.90;;;;;;6231757;28;20799;-60
2022/10/11 01:02:32;;;;;;;15.33;11.73;;;13.40;99.90;;;;;;6232100;28;20484;-60
2022/10/11 01:05:37;;;;;;;13.87;12.43;;;13.40;99.90;;;;;;6231886;28;20476;-60
2022/10/11 01:08:41;;;;;;;14.40;12.90;;;13.40;99.90;;;;;;6231707;28;20484;-60
2022/10/11 01:11:44;;;;;;;14.67;13.20;;;13.40;99.90;;;;;;6232170;28;21001;-60
2022/10/11 01:15:04;;;;;;;13.43;11.77;;;13.40;99.90;;;;;;6231859;28;20849;-59
2022/10/11 01:18:15;;;;;;;16.33;13.10;;;13.40;99.90;;;;;;6231974;28;20486;-60
2022/10/11 01:21:29;;;;;;;14.50;13.10;;;13.40;99.90;;;;;;6228568;28;20531;-60
2022/10/11 01:25:07;;;;;;;14.33;12.80;;;13.40;99.90;;;;;;6228106;28;20484;-59
2022/10/11 01:28:26;;;;;;;13.93;12.27;;;13.40;99.90;;;;;;6228121;28;20480;-58
2022/10/11 01:31:39;;;;;;;16.67;13.37;;;13.40;99.90;;;;;;6227414;28;20460;-55
2022/10/11 01:34:52;;;;;;;14.93;13.50;;;13.30;99.90;;;;;;6227811;28;20946;-56
2022/10/11 01:38:00;;;;;;;15.10;13.70;;;13.30;99.90;;;;;;6227670;28;21096;-56
2022/10/11 01:41:08;;;;;;;16.43;13.30;;;13.30;99.90;;;;;;6227913;28;20538;-56
2022/10/11 01:44:12;;;;;;;14.93;11.70;;;13.30;99.90;;;;;;6227435;28;20488;-56
2022/10/11 01:47:21;;;;;;;15.00;13.57;;;13.30;99.90;;;;;;6227376;28;20764;-56
2022/10/11 01:50:43;;;;;;;14.27;12.87;;;13.30;99.90;;;;;;6227157;28;20531;-57
2022/10/11 01:54:11;;;;;;;16.80;14.47;;;13.30;99.90;;;;;;6227352;28;20483;-57
2022/10/11 01:57:41;;;;;;;14.00;12.67;;;13.40;99.90;;;;;;6226951;28;20487;-57
2022/10/11 02:00:54;;;;;;;15.97;14.47;;;13.40;99.90;;;;;;6226575;28;20467;-58
2022/10/11 02:04:05;;;;;;;15.00;13.53;;;13.40;99.90;;;;;;6226711;28;20546;-56
2022/10/11 02:07:16;;;;;;;16.03;14.33;;;13.40;99.90;;;;;;6227031;28;20495;-58
2022/10/11 02:10:25;;;;;;;16.40;14.70;;;13.50;99.90;;;;;;6226900;28;20522;-58
2022/10/11 02:13:34;;;;;;;15.93;14.30;;;13.40;99.90;;;;;;6226719;28;20425;-59
2022/10/11 02:16:42;;;;;;;14.90;13.60;;;13.40;99.90;;;;;;6226803;28;20457;-58
2022/10/11 02:19:50;;;;;;;16.60;14.30;;;13.50;99.90;;;;;;6226833;28;20464;-56
2022/10/11 02:22:58;;;;;;;15.17;13.17;;;13.50;99.90;;;;;;6226863;28;20471;-57
2022/10/11 02:26:06;;;;;;;14.73;13.33;;;13.50;99.90;;;;;;6229464;28;20484;-57
2022/10/11 02:29:12;;;;;;;14.50;13.00;;;13.50;99.90;;;;;;6227690;28;21053;-57
2022/10/11 02:32:17;;;;;;;15.30;13.67;;;13.60;99.90;;;;;;6225695;28;20539;-57
2022/10/11 02:35:26;;;;;;;15.80;14.30;;;13.60;99.90;;;;;;6226439;28;20476;-57
2022/10/11 02:38:34;;;;;;;15.83;13.73;;;13.60;99.90;;;;;;6226674;28;20561;-56
2022/10/11 02:41:41;;;;;;;14.93;12.90;;;13.60;99.90;;;;;;6225972;28;20486;-56
2022/10/11 02:44:52;;;;;;;15.20;13.73;;;13.60;99.90;;;;;;6226199;28;20484;-57
2022/10/11 02:47:56;;;;;;;15.63;14.10;;;13.60;99.90;;;;;;6226103;28;20468;-57
2022/10/11 02:51:00;;;;;;;16.23;14.60;;;13.30;99.90;;;;;;6225906;28;20587;-55
2022/10/11 02:54:04;;;;;;;16.13;14.43;;;13.30;99.90;;;;;;6225910;28;20954;-57
2022/10/11 02:57:07;;;;;;;17.00;15.20;;;13.20;99.90;;;;;;6225683;28;20555;-56
2022/10/11 03:00:11;;;;;;;16.07;14.47;;;13.20;99.90;;;;;;6225475;28;20464;-56
2022/10/11 03:03:14;;;;;;;17.00;14.90;;;13.20;99.90;;;;;;6225322;28;20479;-56
2022/10/11 03:06:19;;;;;;;17.10;15.40;;;13.20;99.90;;;;;;6224959;28;20484;-56
2022/10/11 03:09:22;;;;;;;15.33;13.20;;;13.30;99.90;;;;;;6225360;28;20961;-56
2022/10/11 03:12:25;;;;;;;15.80;14.13;;;13.30;99.90;;;;;;6225409;28;20476;-56
2022/10/11 03:15:29;;;;;;;16.80;15.03;;;13.30;99.90;;;;;;6225391;28;20491;-57
2022/10/11 03:18:32;;;;;;;15.73;14.23;;;13.30;99.90;;;;;;6225455;28;20487;-57
2022/10/11 03:21:36;;;;;;;17.57;15.93;;;13.20;99.90;;;;;;6225369;28;20931;-56
2022/10/11 03:24:40;;;;;;;15.37;13.77;;;13.20;99.90;;;;;;6225199;28;20766;-57
2022/10/11 03:27:43;;;;;;;16.83;15.03;;;13.20;99.90;;;;;;6225279;28;20468;-56
2022/10/11 03:30:48;;;;;;;17.53;15.70;;;13.20;99.90;;;;;;6225149;28;20487;-56
2022/10/11 03:33:51;;;;;;;16.97;15.13;;;13.20;99.90;;;;;;6225181;28;20468;-56
2022/10/11 03:36:55;;;;;;;16.33;14.63;;;13.30;99.90;;;;;;6225036;28;20853;-56
2022/10/11 03:39:58;;;;;;;20.03;14.60;;;13.30;99.90;;;;;;6224837;28;20966;-56
2022/10/11 03:43:02;;;;;;;17.50;15.73;;;13.30;99.90;;;;;;6224362;28;20907;-56
2022/10/11 03:46:05;;;;;;;17.20;15.43;;;13.30;99.90;;;;;;6224731;28;20472;-56
2022/10/11 03:49:09;;;;;;;18.00;15.10;;;13.30;99.90;;;;;;6224069;28;20472;-56
2022/10/11 03:52:13;;;;;;;16.73;14.60;;;13.30;99.90;;;;;;6224648;28;20495;-56
2022/10/11 03:55:17;;;;;;;17.93;14.10;;;13.20;99.90;;;;;;6224164;28;20468;-56
2022/10/11 03:58:20;;;;;;;16.90;15.10;;;13.20;99.90;;;;;;6225084;28;20448;-56
2022/10/11 04:01:23;;;;;;;17.97;14.07;;;13.30;99.90;;;;;;6224337;28;20522;-56
2022/10/11 04:04:27;;;;;;;21.43;16.50;;;13.30;99.90;;;;;;6224212;28;20935;-57
2022/10/11 04:07:31;;;;;;;17.03;15.33;;;13.30;99.90;;;;;;6224558;28;20459;-56
2022/10/11 04:10:35;;;;;;;18.07;15.23;;;13.40;99.90;;;;;;6224238;28;20491;-56
2022/10/11 04:13:38;;;;;;;17.20;15.40;;;13.30;99.90;;;;;;6224621;28;20852;-56
2022/10/11 04:16:41;;;;;;;18.30;16.13;;;13.30;99.90;;;;;;6223938;28;20471;-55
2022/10/11 04:19:44;;;;;;;18.03;16.13;;;13.40;99.90;;;;;;6224518;28;20475;-56
2022/10/11 04:22:49;;;;;;;17.73;15.93;;;13.40;99.90;;;;;;6224355;28;20472;-56
2022/10/11 04:25:52;;;;;;;20.40;14.90;;;13.30;99.90;;;;;;6224039;28;20808;-55
2022/10/11 04:28:55;;;;;;;18.03;16.27;;;13.30;99.90;;;;;;6224320;28;20468;-56
2022/10/11 04:31:58;;;;;;;19.13;17.13;;;13.30;99.90;;;;;;6223858;28;20470;-56
2022/10/11 04:35:01;;;;;;;18.80;16.87;;;13.30;99.90;;;;;;6223851;28;20510;-56
2022/10/11 04:38:08;;;;;;;19.10;17.07;;;13.40;99.90;;;;;;6224485;28;20481;-56
2022/10/11 04:41:13;;;;;;;17.80;16.03;;;13.40;99.90;;;;;;6224282;28;20958;-55
2022/10/11 04:44:16;;;;;;;17.00;15.27;;;13.40;99.90;;;;;;6223904;28;20807;-55
2022/10/11 04:47:19;;;;;;;16.57;15.13;;;13.40;99.90;;;;;;6234988;28;20841;-58
2022/10/11 04:50:23;;;;;;;17.70;15.50;;;13.40;99.90;;;;;;6248804;28;20479;-59
2022/10/11 04:53:27;;;;;;;18.80;14.97;;;13.40;99.90;;;;;;6248645;28;20544;-57
2022/10/11 04:56:31;;;;;;;17.47;15.70;;;13.40;99.90;;;;;;6251149;28;21018;-56
2022/10/11 04:59:34;;;;;;;16.87;15.27;;;13.40;99.90;;;;;;6253260;28;20751;-58
2022/10/11 05:02:37;;;;;;;17.40;15.63;;;13.30;99.90;;;;;;6252984;28;20483;-57
2022/10/11 05:05:40;;;;;;;18.53;16.30;;;13.30;99.90;;;;;;6252787;28;20475;-60
2022/10/11 05:08:45;;;;;;;19.93;16.20;;;13.40;99.90;;;;;;6239561;28;20491;-58
2022/10/11 05:11:48;;;;;;;18.27;16.43;;;13.40;99.90;;;;;;6228493;28;20468;-56
2022/10/11 05:14:51;;;;;;;17.43;15.33;;;13.40;99.90;;;;;;6234756;28;20812;-55
2022/10/11 05:32:17;;;;;;;18.90;17.00;;;13.40;99.90;;;;;;5991760;29;20504;-57
2022/10/11 05:35:21;;;;;;;18.80;16.20;;;13.40;99.90;;;;;;6016914;29;21003;-59
2022/10/11 05:38:24;;;;;;;18.13;16.30;;;13.40;99.90;;;;;;6105778;29;20487;-58
2022/10/11 05:41:28;;;;;;;20.13;16.50;;;13.50;99.90;;;;;;6105441;29;20492;-57
2022/10/11 05:44:31;;;;;;;17.90;15.00;;;13.50;99.90;;;;;;6105498;29;20538;-57
2022/10/11 05:47:35;;;;;;;18.37;16.47;;;13.60;99.90;;;;;;6105447;29;20563;-58
2022/10/11 05:50:39;;;;;;;22.83;15.30;;;13.70;99.90;;;;;;6105435;29;20501;-59
2022/10/11 05:53:42;;;;;;;17.60;16.00;;;13.80;99.90;;;;;;6105206;29;20609;-60
2022/10/11 05:56:45;;;;;;;21.07;17.57;;;13.90;99.90;;;;;;6104868;29;20485;-56
2022/10/11 05:59:48;;;;;;;16.70;15.10;;;13.90;99.90;;;;;;6105388;29;20949;-59
2022/10/11 06:02:52;;;;;;;18.17;15.53;;;14.00;99.90;;;;;;6117775;28;20489;-58
2022/10/11 06:05:56;;;;;;;16.10;14.47;;;14.00;99.90;;;;;;6175981;28;20474;-59
2022/10/11 06:08:59;;;;;;;17.90;14.40;;;14.10;99.90;;;;;;6224546;28;20945;-58
2022/10/11 06:12:02;;;;;;;15.87;14.23;;;14.10;99.90;;;;;;6253170;28;20940;-59
2022/10/11 06:15:07;;;;;;;19.93;16.30;;;14.20;99.90;;;;;;6250870;28;20877;-59
2022/10/11 06:18:10;;;;;;;22.23;15.57;;;14.30;99.90;;;;;;6250177;28;20506;-59
2022/10/11 06:21:15;;;;;;;25.93;15.70;;;14.30;99.90;;;;;;6250447;28;20467;-58
2022/10/11 06:24:19;;;;;;;16.07;13.30;;;14.40;99.90;;;;;;6251007;28;20629;-58
2022/10/11 06:27:22;;;;;;;15.00;13.40;;;14.40;99.90;;;;;;6251194;28;20483;-56
2022/10/11 06:30:25;;;;;;;14.30;12.90;;;14.60;99.90;;;;;;6250972;28;20965;-58
2022/10/11 06:33:28;;;;;;;15.40;14.00;;;14.70;99.90;;;;;;6251094;28;20980;-57
2022/10/11 06:36:33;;;;;;;14.90;13.40;;;14.90;99.90;;;;;;6249774;28;20874;-58
2022/10/11 06:39:36;;;;;;;16.13;14.43;;;14.90;99.90;;;;;;6249200;28;20494;-59
2022/10/11 06:42:39;;;;;;;14.97;13.67;;;15.00;99.90;;;;;;6250196;28;20474;-57
2022/10/11 06:45:42;;;;;;;15.60;14.00;;;15.20;99.90;;;;;;6239295;28;20487;-56
2022/10/11 06:48:47;;;;;;;15.43;13.93;;;15.40;99.90;;;;;;6239620;28;20475;-58
2022/10/11 06:51:51;;;;;;;13.57;12.07;;;15.60;99.90;;;;;;6250416;28;20953;-59
2022/10/11 06:54:54;;;;;;;12.53;11.33;;;15.80;99.90;;;;;;6250254;28;20971;-58
2022/10/11 06:57:57;;;;;;;15.90;13.00;;;16.00;99.90;;;;;;6250349;28;20475;-58
2022/10/11 07:01:01;;;;;;;18.77;13.10;;;16.10;99.90;;;;;;6250503;28;20789;-58
2022/10/11 07:04:05;;;;;;;14.60;12.93;;;16.30;99.90;;;;;;6250005;28;20479;-58
2022/10/11 07:07:12;;;;;;;21.17;14.40;;;16.30;99.90;;;;;;6250358;28;20482;-57
2022/10/11 07:10:15;;;;;;;14.73;12.37;;;16.30;99.90;;;;;;6250035;28;20475;-57
2022/10/11 07:13:19;;;;;;;13.63;12.37;;;16.40;99.90;;;;;;6249898;28;20455;-58
2022/10/11 07:16:23;;;;;;;16.83;13.20;;;16.40;99.90;;;;;;6249866;28;20489;-58
2022/10/11 07:19:26;;;;;;;16.00;13.63;;;16.50;99.90;;;;;;6249377;28;20479;-58
2022/10/11 07:22:30;;;;;;;14.10;12.80;;;16.60;99.90;;;;;;6249568;28;20822;-58
2022/10/11 07:25:33;;;;;;;14.93;13.53;;;16.70;99.90;;;;;;6249535;28;20459;-58
2022/10/11 07:28:38;;;;;;;15.93;14.30;;;16.80;99.90;;;;;;6249823;28;20443;-58
2022/10/11 07:31:42;;;;;;;17.80;13.00;;;17.00;99.90;;;;;;6249761;28;20533;-58
2022/10/11 07:34:45;;;;;;;15.80;14.30;;;17.20;99.90;;;;;;6249722;28;20482;-58
2022/10/11 07:37:50;;;;;;;18.93;14.70;;;17.40;99.90;;;;;;6249799;28;20471;-58
2022/10/11 07:40:53;;;;;;;18.77;15.07;;;17.70;99.90;;;;;;6249787;28;20463;-58
2022/10/11 07:43:57;;;;;;;19.23;13.60;;;17.90;99.90;;;;;;6249493;28;20478;-58
2022/10/11 07:47:00;;;;;;;15.67;14.03;;;18.10;99.90;;;;;;6249425;28;20312;-59
2022/10/11 07:50:03;;;;;;;18.63;13.80;;;18.20;99.90;;;;;;6243282;28;20480;-59
2022/10/11 07:53:08;;;;;;;16.60;15.00;;;18.60;99.90;;;;;;6235168;28;20229;-58
2022/10/11 07:56:13;;;;;;;15.50;14.03;;;19.20;99.90;;;;;;6247252;28;20613;-58
2022/10/11 07:59:17;;;;;;;19.87;15.20;;;19.60;99.90;;;;;;6248712;28;20712;-59
2022/10/11 08:02:20;;;;;;;16.63;14.73;;;20.20;99.90;;;;;;6249389;28;20548;-58
2022/10/11 08:05:23;;;;;;;15.20;13.70;;;20.80;99.80;;;;;;6249378;28;20240;-58
2022/10/11 08:08:28;;;;;;;20.17;14.27;;;21.00;97.90;;;;;;6249054;28;20232;-58
2022/10/11 08:11:33;;;;;;;19.77;14.97;;;21.20;97.60;;;;;;6231609;28;20347;-58
2022/10/11 08:14:37;;;;;;;15.83;14.23;;;21.20;96.90;;;;;;6222885;28;20233;-58
2022/10/11 08:17:40;;;;;;;19.10;14.97;;;21.20;96.90;;;;;;6224692;28;20232;-58
2022/10/11 08:20:43;;;;;;;21.03;17.83;;;21.20;96.90;;;;;;6224256;28;20247;-58
2022/10/11 08:23:47;;;;;;;16.30;14.60;;;21.50;96.50;;;;;;6224297;28;20236;-58
2022/10/11 08:26:51;;;;;;;18.60;14.47;;;21.60;96.10;;;;;;6223937;28;20247;-58
2022/10/11 08:29:55;;;;;;;19.83;14.37;;;21.70;95.60;;;;;;6225918;28;20221;-59
2022/10/11 08:32:58;;;;;;;20.20;14.73;;;21.50;95.50;;;;;;6224452;28;20294;-58
2022/10/11 08:36:04;;;;;;;15.67;14.03;;;21.20;96.10;;;;;;6229259;28;20320;-58
2022/10/11 08:39:09;;;;;;;20.57;17.10;;;20.90;96.30;;;;;;6229397;28;20229;-58
2022/10/11 08:42:20;;;;;;;17.97;15.00;;;20.60;96.50;;;;;;6228856;28;20240;-58
2022/10/11 08:45:32;;;;;;;17.40;14.70;;;20.10;97.50;;;;;;6229188;28;20584;-58
2022/10/11 08:48:38;;;;;;;17.17;14.50;;;19.90;98.10;;;;;;6228531;28;20244;-61
2022/10/11 08:51:45;;;;;;;16.20;14.60;;;19.90;98.30;;;;;;6228747;28;20647;-58
2022/10/11 08:54:55;;;;;;;16.77;15.07;;;19.90;98.50;;;;;;6228446;28;20240;-58
2022/10/11 08:57:59;;;;;;;20.53;13.80;;;20.00;98.70;;;;;;6228543;28;20225;-59
2022/10/11 09:01:03;;;;;;;16.47;14.77;;;20.10;98.50;;;;;;6228146;28;20233;-59
2022/10/11 09:04:12;;;;;;;17.47;15.07;;;20.40;98.50;;;;;;6227953;28;20495;-58
2022/10/11 09:07:27;;;;;;;16.87;13.87;;;20.70;97.40;;;;;;6228342;28;20234;-58
2022/10/11 09:10:52;;;;;;;17.63;15.13;;;21.00;97.60;;;;;;6228332;28;20237;-57
2022/10/11 09:14:07;;;;;;;16.80;14.53;;;21.00;96.80;;;;;;6221752;28;20675;-57
2022/10/11 09:17:20;;;;;;;16.70;14.97;;;21.10;96.50;;;;;;6228255;28;20225;-57
2022/10/11 09:20:52;;;;;;;14.83;13.43;;;21.00;96.20;;;;;;6228259;28;20217;-58
2022/10/11 09:24:24;;;;;;;15.07;13.40;;;21.00;96.70;;;;;;6203648;28;20234;-58
2022/10/11 09:27:35;;;;;;;15.90;14.20;;;21.70;96.20;;;;;;6203549;28;20229;-58
2022/10/11 09:30:59;;;;;;;15.00;12.47;;;22.90;96.20;;;;;;6233483;28;20379;-59
2022/10/11 09:34:10;;;;;;;14.50;12.17;;;25.70;91.80;;;;;;6232845;28;20227;-60
2022/10/11 09:37:20;;;;;;;12.77;11.57;;;29.50;75.30;;;;;;6241258;28;20231;-59
2022/10/11 09:40:35;;;;;;;13.40;11.80;;;30.60;60.40;;;;;;6227425;28;20228;-59
2022/10/11 09:43:40;;;;;;;16.98;12.68;;;31.20;57.00;;;;;;6228013;28;20243;-60
2022/10/11 09:46:44;;;;;;;11.35;9.80;;;34.40;50.00;;;;;;6228070;28;20291;-60
2022/10/11 09:49:51;;;;;;;10.60;9.60;;;37.70;40.70;;;;;;6236879;28;20300;-60
2022/10/11 09:52:55;;;;;;;12.20;10.02;;;40.40;34.60;;;;;;6240011;28;20244;-60
2022/10/11 09:56:04;;;;;;;8.95;8.13;;;42.40;29.70;;;;;;6235294;28;20232;-60
2022/10/11 09:59:27;;;;;;;10.18;9.20;;;43.70;26.60;;;;;;6249432;28;20234;-60
2022/10/11 10:02:38;;;;;;;9.30;8.50;;;45.60;24.70;;;;;;6251923;28;20235;-60
2022/10/11 10:05:42;;;;;;;9.73;8.82;;;46.70;23.30;;;;;;6252005;28;20239;-60
2022/10/11 10:08:46;;;;;;;8.88;8.15;;;48.00;21.90;;;;;;6252258;28;20234;-61
2022/10/11 10:11:49;;;;;;;8.80;7.50;;;47.40;21.20;;;;;;6251693;28;20241;-61
2022/10/11 10:15:04;;;;;;;8.55;7.78;;;47.60;21.10;;;;;;6237782;28;20249;-60
2022/10/11 10:18:17;;;;;;;8.98;8.02;;;47.90;20.50;;;;;;6226853;28;20228;-60
2022/10/11 10:21:29;;;;;;;7.80;7.13;;;47.80;20.40;;;;;;6227024;28;20238;-61
2022/10/11 10:24:39;;;;;;;8.23;7.53;;;47.70;19.70;;;;;;6226985;28;20247;-60
2022/10/11 10:27:57;;;;;;;9.48;7.47;;;46.80;20.60;;;;;;6226955;28;20239;-60
2022/10/11 10:31:01;;;;;;;10.32;7.85;;;46.50;20.30;;;;;;6240068;28;20291;-59
2022/10/11 10:34:12;;;;;;;10.70;7.65;;;45.00;21.20;;;;;;6244963;28;20534;-59
2022/10/11 10:37:21;;;;;;;9.50;8.70;;;45.10;21.50;;;;;;6251166;28;20555;-60
2022/10/11 10:40:28;;;;;;;8.68;7.80;;;45.20;21.30;;;;;;6251046;28;20217;-60
2022/10/11 10:43:34;;;;;;;7.63;7.03;;;46.50;20.90;;;;;;6251590;28;20203;-60
2022/10/11 10:46:54;;;;;;;10.93;8.88;;;47.50;19.90;;;;;;6250602;28;20512;-60
2022/10/11 10:50:06;;;;;;;8.73;8.05;;;46.40;20.40;;;;;;6251393;28;20238;-59
2022/10/11 10:53:23;;;;;;;8.40;7.70;;;44.90;21.30;;;;;;6229866;28;20235;-60
2022/10/11 10:56:32;;;;;;;10.52;7.82;;;45.10;21.30;;;;;;6241584;28;20692;-60
2022/10/11 10:59:58;;;;;;;8.88;8.07;;;45.20;21.30;;;;;;6239777;28;20246;-60
2022/10/11 11:03:05;;;;;;;8.63;7.93;;;44.50;21.60;;;;;;6248343;28;20227;-60
2022/10/11 11:06:15;;;;;;;9.05;8.35;;;44.90;21.50;;;;;;6251868;28;20246;-61
2022/10/11 11:09:33;;;;;;;8.35;7.55;;;44.70;21.70;;;;;;6250435;28;20227;-60
2022/10/11 11:12:46;;;;;;;7.47;6.78;;;46.50;21.20;;;;;;6250396;28;20373;-61
2022/10/11 11:15:55;;;;;;;8.65;7.35;;;45.80;20.80;;;;;;6228718;28;20293;-61
2022/10/11 11:19:07;;;;;;;8.15;7.45;;;46.70;20.60;;;;;;6225781;28;20294;-61
2022/10/11 11:22:21;;;;;;;7.97;7.28;;;47.80;19.60;;;;;;6233617;28;20220;-59
2022/10/11 11:25:30;;;;;;;7.68;6.88;;;45.70;20.70;;;;;;6227297;28;20232;-60
2022/10/11 11:28:52;;;;;;;9.68;6.68;;;44.60;21.80;;;;;;6226700;28;20256;-60
2022/10/11 11:32:10;;;;;;;7.90;7.18;;;42.80;22.50;;;;;;6225314;28;20754;-60
2022/10/11 11:35:24;;;;;;;7.78;6.97;;;43.00;22.50;;;;;;6225209;28;20931;-61
2022/10/11 11:38:37;;;;;;;6.53;5.88;;;44.00;21.90;;;;;;6226739;28;20366;-61
2022/10/11 11:41:44;;;;;;;10.98;6.65;;;45.00;21.40;;;;;;6225197;28;20745;-60
2022/10/11 11:44:49;;;;;;;8.48;7.00;;;46.70;20.40;;;;;;6225567;28;20234;-60
2022/10/11 11:47:56;;;;;;;7.55;6.60;;;47.00;20.00;;;;;;6225152;28;20267;-59
2022/10/11 11:51:04;;;;;;;10.25;6.80;;;47.80;19.60;;;;;;6224894;28;20278;-59
2022/10/11 11:54:21;;;;;;;8.07;5.68;;;48.20;18.80;;;;;;6225179;28;20251;-60
2022/10/11 11:57:31;;;;;;;5.85;5.35;;;47.70;19.00;;;;;;6230825;28;20603;-59
2022/10/11 12:00:46;;;;;;;6.82;5.65;;;47.50;18.90;;;;;;6230308;28;20224;-60
2022/10/11 12:03:53;;;;;;;6.75;6.15;;;48.30;18.60;;;;;;6224969;28;20228;-60
2022/10/11 12:07:05;;;;;;;6.63;6.03;;;49.00;18.10;;;;;;6225120;28;20551;-61
2022/10/11 12:10:34;;;;;;;5.90;5.50;;;49.40;18.10;;;;;;6225353;28;20642;-60
2022/10/11 12:13:39;;;;;;;8.77;6.20;;;49.70;17.90;;;;;;6225753;28;20505;-60
2022/10/11 12:17:17;;;;;;;9.80;6.47;;;49.10;18.00;;;;;;6225193;28;20255;-60
2022/10/11 12:20:23;;;;;;;6.03;5.43;;;48.30;18.20;;;;;;6224952;28;20578;-59
2022/10/11 12:23:47;;;;;;;7.05;5.72;;;48.70;17.80;;;;;;6224829;28;20236;-60
2022/10/11 12:26:55;;;;;;;6.43;5.18;;;47.80;17.90;;;;;;6224554;28;20240;-61
2022/10/11 12:29:58;;;;;;;8.13;6.13;;;47.80;18.30;;;;;;6224445;28;20232;-60
2022/10/11 12:33:12;;;;;;;9.18;5.47;;;48.10;18.10;;;;;;6226576;28;20239;-61
2022/10/11 12:36:38;;;;;;;9.65;5.82;;;48.30;18.30;;;;;;6232078;28;20294;-60
2022/10/11 12:39:51;;;;;;;7.00;6.28;;;49.50;17.90;;;;;;6243079;28;20231;-60
2022/10/11 12:43:10;;;;;;;9.35;5.90;;;49.90;17.60;;;;;;6235086;28;20229;-60
2022/10/11 12:46:33;;;;;;;6.07;5.47;;;50.10;17.50;;;;;;6235736;28;20248;-59
2022/10/11 12:50:01;;;;;;;7.13;5.30;;;49.40;17.30;;;;;;6241728;28;20223;-59
2022/10/11 12:53:12;;;;;;;7.05;5.68;;;49.40;17.00;;;;;;6234488;28;20223;-60
2022/10/11 12:56:26;;;;;;;5.97;5.38;;;46.70;18.50;;;;;;6223250;28;20246;-59
2022/10/11 12:59:31;;;;;;;6.95;5.93;;;45.20;19.70;;;;;;6242058;28;20292;-60
2022/10/11 13:02:41;;;;;;;7.60;5.78;;;45.80;19.70;;;;;;6249330;28;20230;-61
2022/10/11 13:05:45;;;;;;;10.60;6.03;;;45.30;20.00;;;;;;6248973;28;20262;-60
2022/10/11 13:08:59;;;;;;;8.05;5.88;;;45.60;19.70;;;;;;6248863;28;20683;-60
2022/10/11 13:12:06;;;;;;;8.50;6.50;;;45.30;20.00;;;;;;6249210;28;20316;-60
2022/10/11 13:15:15;;;;;;;8.20;5.93;;;43.90;20.80;;;;;;6233058;28;20289;-60
2022/10/11 13:18:21;;;;;;;6.97;6.07;;;44.50;20.90;;;;;;6238483;28;20666;-60
2022/10/11 13:21:29;;;;;;;7.10;5.90;;;45.00;20.40;;;;;;6236099;28;20229;-59
2022/10/11 13:24:37;;;;;;;10.25;6.45;;;44.40;20.80;;;;;;6240606;28;20228;-60
2022/10/11 13:27:41;;;;;;;10.40;6.97;;;44.30;21.10;;;;;;6235916;28;20662;-60
2022/10/11 13:30:48;;;;;;;9.57;8.55;;;43.10;22.10;;;;;;6236477;28;20221;-59
2022/10/11 13:33:53;;;;;;;10.18;7.30;;;40.00;24.40;;;;;;6242006;28;20228;-59
2022/10/11 13:36:58;;;;;;;11.38;7.40;;;37.10;27.10;;;;;;6238083;28;20224;-60
2022/10/11 13:40:01;;;;;;;10.75;7.50;;;35.10;29.30;;;;;;6238907;28;20228;-60
2022/10/11 13:43:07;;;;;;;8.65;7.22;;;33.70;30.80;;;;;;6238051;28;20235;-59
2022/10/11 13:46:16;;;;;;;8.25;7.55;;;32.10;33.20;;;;;;6237751;28;20244;-61
2022/10/11 13:49:35;;;;;;;8.50;7.70;;;30.90;35.50;;;;;;6224061;28;20259;-61
2022/10/11 13:52:53;;;;;;;8.43;7.73;;;29.50;38.00;;;;;;6227486;28;20293;-60
2022/10/11 13:55:58;;;;;;;10.30;7.60;;;28.60;40.20;;;;;;6224983;28;20235;-59
2022/10/11 13:59:04;;;;;;;10.20;8.30;;;27.70;42.00;;;;;;6227812;28;20224;-60
2022/10/11 14:02:18;;;;;;;10.47;8.60;;;27.10;43.40;;;;;;6232975;28;20219;-60
2022/10/11 14:05:25;;;;;;;9.30;8.33;;;26.60;44.30;;;;;;6236923;28;20575;-60
2022/10/11 14:08:34;;;;;;;8.80;7.57;;;25.90;46.10;;;;;;6231364;28;20228;-60
2022/10/11 14:11:39;;;;;;;11.60;8.73;;;25.30;47.60;;;;;;6228889;28;20224;-58
2022/10/11 14:14:44;;;;;;;10.07;7.90;;;25.00;48.30;;;;;;6227780;28;20602;-59
2022/10/11 14:17:47;;;;;;;12.53;8.23;;;24.70;48.90;;;;;;6226568;28;20229;-58
2022/10/11 14:20:50;;;;;;;9.77;7.53;;;24.20;50.50;;;;;;6225833;28;20225;-59
2022/10/11 14:23:55;;;;;;;9.80;7.73;;;23.80;51.50;;;;;;6222868;28;20229;-59
2022/10/11 14:26:58;;;;;;;9.60;7.27;;;23.60;52.00;;;;;;6225132;28;20245;-58
2022/10/11 14:30:05;;;;;;;10.20;7.30;;;23.50;53.00;;;;;;6225445;28;20228;-59
2022/10/11 14:33:27;;;;;;;12.73;8.27;;;23.40;53.70;;;;;;6224722;28;20236;-59
2022/10/11 14:36:31;;;;;;;14.60;8.43;;;23.20;54.40;;;;;;6225399;28;20252;-58
2022/10/11 14:39:34;;;;;;;9.70;8.03;;;22.70;56.10;;;;;;6223216;28;20231;-58
2022/10/11 14:42:37;;;;;;;8.77;7.40;;;22.60;56.70;;;;;;6225475;28;20318;-58
2022/10/11 14:45:42;;;;;;;11.40;7.30;;;22.60;56.90;;;;;;6225046;28;20287;-59
2022/10/11 14:48:45;;;;;;;12.20;7.87;;;22.40;57.70;;;;;;6225280;28;20232;-59
2022/10/11 14:52:05;;;;;;;9.77;8.50;;;22.20;58.70;;;;;;6224057;28;20259;-59
2022/10/11 14:55:08;;;;;;;11.13;7.70;;;22.20;59.40;;;;;;6225363;28;20233;-59
2022/10/11 14:58:14;;;;;;;8.53;7.23;;;22.20;59.70;;;;;;6217667;28;20627;-59
2022/10/11 15:01:19;;;;;;;8.30;7.50;;;22.10;60.00;;;;;;6226762;28;20690;-60
2022/10/11 15:04:23;;;;;;;9.40;6.97;;;22.00;60.50;;;;;;6225792;28;20568;-58
2022/10/11 15:07:26;;;;;;;10.40;7.87;;;22.00;61.50;;;;;;6226735;28;20205;-59
2022/10/11 15:10:33;;;;;;;12.23;7.20;;;22.00;62.50;;;;;;6226419;28;20219;-59
2022/10/11 15:13:36;;;;;;;8.97;8.07;;;21.90;63.00;;;;;;6226235;28;20205;-59
2022/10/11 15:16:41;;;;;;;10.30;7.17;;;21.70;63.70;;;;;;6226372;28;20283;-58
2022/10/11 15:19:45;;;;;;;12.13;8.10;;;21.60;65.00;;;;;;6226693;28;20282;-58
2022/10/11 15:22:48;;;;;;;14.03;8.93;;;21.50;66.00;;;;;;6227970;28;20236;-58
2022/10/11 15:25:51;;;;;;;12.13;8.60;;;21.30;67.10;;;;;;6226087;28;20239;-58
2022/10/11 15:28:56;;;;;;;9.23;8.33;;;21.20;67.90;;;;;;6226411;28;20224;-58
2022/10/11 15:32:01;;;;;;;13.77;7.40;;;21.20;68.80;;;;;;6225837;28;20239;-59
2022/10/11 15:35:05;;;;;;;8.10;7.13;;;21.10;70.40;;;;;;6225794;28;20269;-59
2022/10/11 15:38:17;;;;;;;12.47;7.67;;;21.00;71.90;;;;;;6225453;28;20237;-59
2022/10/11 15:41:20;;;;;;;10.50;7.27;;;20.90;73.30;;;;;;6225554;28;20298;-60
2022/10/11 15:44:23;;;;;;;12.60;7.00;;;20.90;74.10;;;;;;6224921;28;20312;-59
2022/10/11 15:47:28;;;;;;;10.53;7.40;;;20.80;74.50;;;;;;6225902;28;20229;-60
2022/10/11 15:50:36;;;;;;;13.97;8.07;;;20.80;75.30;;;;;;6225421;28;20588;-59
2022/10/11 15:53:40;;;;;;;9.20;7.63;;;20.80;75.80;;;;;;6223636;28;20312;-60
2022/10/11 15:56:43;;;;;;;11.23;7.50;;;20.80;76.50;;;;;;6223852;28;20233;-61
2022/10/11 15:59:46;;;;;;;8.50;7.33;;;20.70;77.50;;;;;;6223923;28;20698;-61
2022/10/11 16:02:52;;;;;;;8.43;6.90;;;20.60;78.30;;;;;;6224055;28;20233;-59
2022/10/11 16:05:56;;;;;;;9.30;7.50;;;20.50;79.10;;;;;;6223696;28;20272;-59
2022/10/11 16:09:06;;;;;;;11.50;8.40;;;20.50;80.00;;;;;;6221136;28;20229;-59
2022/10/11 16:12:10;;;;;;;10.13;6.77;;;20.40;80.70;;;;;;6223773;28;20236;-58